createdAt,value
2022-12-08T09:14:18.069Z,9.70
2022-12-08T09:16:47.122Z,8.30
2022-12-08T09:19:18.062Z,6.25
2022-12-08T09:21:46.919Z,7.10
2022-12-08T09:24:16.919Z,6.43
2022-12-08T09:26:47.055Z,6.00
2022-12-08T09:29:17.863Z,9.05
2022-12-08T09:31:47.161Z,11.50
2022-12-08T09:34:16.687Z,7.57
2022-12-08T09:36:45.605Z,6.53
2022-12-08T09:39:16.691Z,18.67
2022-12-08T09:42:05.477Z,19.88
2022-12-08T09:44:57.565Z,11.73
2022-12-08T09:47:35.509Z,11.18
2022-12-08T09:50:33.719Z,11.05
2022-12-08T09:53:08.730Z,5.30
2022-12-08T09:55:43.655Z,6.18
2022-12-08T09:58:22.087Z,5.82
2022-12-08T10:00:52.446Z,8.05
2022-12-08T10:03:24.614Z,5.60
2022-12-08T10:06:00.444Z,7.75
2022-12-08T10:08:37.161Z,4.68
2022-12-08T10:11:12.738Z,9.50
2022-12-08T10:13:47.857Z,6.43
2022-12-08T10:19:09.149Z,15.57
2022-12-08T10:25:05.167Z,18.70
2022-12-08T10:30:20.022Z,9.18
2022-12-08T10:32:52.566Z,9.60
2022-12-08T10:35:46.087Z,8.98
2022-12-08T10:38:24.703Z,7.53
2022-12-08T10:40:58.637Z,11.23
2022-12-08T10:43:29.126Z,10.25
2022-12-08T10:46:13.338Z,11.88
2022-12-08T10:48:55.014Z,11.13
2022-12-08T10:51:29.183Z,8.07
2022-12-08T10:53:58.132Z,8.70
2022-12-08T10:56:31.185Z,9.38
2022-12-08T10:59:16.117Z,10.20
2022-12-08T11:01:49.008Z,10.20
2022-12-08T11:04:21.917Z,12.52
2022-12-08T11:06:52.085Z,9.43
2022-12-08T11:09:38.806Z,9.80
2022-12-08T11:12:53.054Z,9.60
2022-12-08T11:15:22.656Z,6.70
2022-12-08T11:18:03.886Z,7.95
2022-12-08T11:20:41.423Z,8.48
2022-12-08T11:23:26.186Z,10.50
2022-12-08T11:25:59.278Z,8.20
2022-12-08T11:28:32.217Z,9.02
2022-12-08T11:31:05.687Z,8.00
2022-12-08T11:33:36.803Z,10.75
2022-12-08T11:36:43.904Z,8.50
2022-12-08T11:39:15.317Z,7.97
2022-12-08T11:41:46.084Z,8.85
2022-12-08T11:44:34.837Z,9.20
2022-12-08T11:47:12.907Z,10.02
2022-12-08T11:49:43.768Z,10.20
2022-12-08T11:52:22.659Z,7.40
2022-12-08T11:54:57.442Z,13.38
2022-12-08T11:57:28.877Z,11.23
2022-12-08T11:59:59.725Z,11.25
2022-12-08T12:02:30.436Z,14.07
2022-12-08T12:05:06.245Z,10.07
2022-12-08T12:07:55.573Z,10.55
2022-12-08T12:11:09.385Z,14.77
2022-12-08T12:14:00.006Z,15.70
2022-12-08T12:17:18.013Z,14.70
2022-12-08T12:19:41.759Z,14.35
2022-12-08T12:22:17.525Z,12.98
2022-12-08T12:24:53.428Z,13.38
2022-12-08T12:27:28.897Z,14.15
2022-12-08T12:30:00.446Z,12.77
2022-12-08T12:32:44.844Z,13.10
2022-12-08T12:35:20.389Z,11.35
2022-12-08T12:37:52.967Z,13.15
2022-12-08T12:40:27.606Z,12.77
2022-12-08T12:47:56.857Z,17.40
2022-12-08T12:50:22.259Z,13.27
2022-12-08T12:53:34.774Z,16.85
2022-12-08T12:56:08.175Z,15.13
2022-12-08T12:58:44.682Z,16.63
2022-12-08T13:01:39.032Z,18.67
2022-12-08T13:04:10.828Z,16.25
2022-12-08T13:06:44.613Z,15.00
2022-12-08T13:09:25.398Z,16.40
2022-12-08T13:11:58.815Z,13.77
2022-12-08T13:14:35.985Z,16.30
2022-12-08T13:17:11.324Z,12.00
